createdAt,value
2019-02-12T00:00:22.681Z,7.33
2019-02-12T00:02:51.053Z,7.87
2019-02-12T00:05:19.349Z,9.20
2019-02-12T00:07:47.671Z,16.27
2019-02-12T00:10:18.920Z,15.47
2019-02-12T00:12:47.467Z,21.63
2019-02-12T00:15:16.011Z,19.23
2019-02-12T00:17:44.377Z,24.93
2019-02-12T00:20:12.929Z,18.97
2019-02-12T00:22:41.216Z,14.73
2019-02-12T00:25:17.471Z,10.93
2019-02-12T00:27:45.758Z,12.50
2019-02-12T00:30:14.138Z,12.57
2019-02-12T00:32:42.426Z,12.67
2019-02-12T00:35:11.030Z,13.03
2019-02-12T00:37:39.323Z,10.00
2019-02-12T00:40:09.154Z,9.13
2019-02-12T00:42:37.468Z,10.40
2019-02-12T00:45:08.422Z,9.20
2019-02-12T00:47:36.716Z,8.20
2019-02-12T00:50:07.915Z,8.83
2019-02-12T00:52:36.376Z,8.53
2019-02-12T00:55:06.709Z,9.10
2019-02-12T00:57:35.108Z,8.93
2019-02-12T01:00:05.046Z,10.03
2019-02-12T01:02:33.357Z,11.03
2019-02-12T01:05:01.667Z,10.63
2019-02-12T01:07:29.960Z,8.77
2019-02-12T01:09:58.244Z,8.30
2019-02-12T01:12:26.570Z,8.53
2019-02-12T01:14:54.862Z,7.90
2019-02-12T01:17:23.179Z,7.43
2019-02-12T01:19:51.744Z,7.50
2019-02-12T01:22:20.057Z,7.57
2019-02-12T01:24:48.381Z,7.30
2019-02-12T01:27:16.674Z,7.37
2019-02-12T01:29:44.980Z,7.43
2019-02-12T01:32:13.273Z,7.57
2019-02-12T01:34:41.587Z,7.17
2019-02-12T01:37:09.879Z,6.63
2019-02-12T01:39:38.177Z,6.47
2019-02-12T01:42:06.727Z,6.70
2019-02-12T01:44:35.030Z,7.50
2019-02-12T01:47:03.324Z,6.87
2019-02-12T01:49:31.644Z,6.90
2019-02-12T01:51:59.926Z,6.57
2019-02-12T01:54:28.229Z,5.90
2019-02-12T01:56:56.762Z,6.90
2019-02-12T01:59:25.296Z,6.93
2019-02-12T02:01:53.591Z,7.23
2019-02-12T02:04:22.160Z,6.90
2019-02-12T02:06:50.449Z,6.60
2019-02-12T02:09:18.757Z,7.43
2019-02-12T02:11:47.041Z,6.43
2019-02-12T02:14:15.333Z,5.93
2019-02-12T02:16:43.631Z,6.60
2019-02-12T02:19:11.926Z,6.97
2019-02-12T02:21:44.110Z,7.13
2019-02-12T02:24:10.477Z,6.23
2019-02-12T02:26:41.850Z,6.90
2019-02-12T02:29:10.133Z,7.03
2019-02-12T02:31:38.462Z,6.20
2019-02-12T02:34:06.752Z,6.20
2019-02-12T02:36:35.043Z,6.13
2019-02-12T02:39:04.404Z,5.83
2019-02-12T02:41:32.705Z,6.33
2019-02-12T02:44:00.969Z,6.43
2019-02-12T02:46:29.271Z,6.67
2019-02-12T02:48:57.562Z,5.70
2019-02-12T02:51:25.858Z,5.87
2019-02-12T02:53:54.134Z,6.60
2019-02-12T02:56:22.430Z,6.17
2019-02-12T02:58:50.723Z,5.63
2019-02-12T03:01:19.014Z,6.20
2019-02-12T03:03:47.291Z,6.30
2019-02-12T03:06:15.588Z,6.53
2019-02-12T03:08:44.139Z,6.47
2019-02-12T03:11:12.419Z,6.90
2019-02-12T03:13:40.719Z,5.90
2019-02-12T03:16:09.011Z,5.77
2019-02-12T03:18:37.295Z,5.67
2019-02-12T03:21:05.583Z,5.57
2019-02-12T03:23:33.897Z,5.40
2019-02-12T03:26:02.443Z,6.00
2019-02-12T03:28:30.812Z,5.57
2019-02-12T03:30:59.095Z,5.47
2019-02-12T03:33:27.400Z,6.23
2019-02-12T03:35:55.676Z,6.00
2019-02-12T03:38:23.981Z,5.60
2019-02-12T03:40:52.245Z,5.50
2019-02-12T03:43:20.542Z,5.40
2019-02-12T03:45:48.821Z,6.53
2019-02-12T03:48:17.120Z,6.10
2019-02-12T03:50:45.388Z,6.47
2019-02-12T03:53:13.665Z,6.23
2019-02-12T03:55:41.963Z,6.00
2019-02-12T03:58:10.244Z,6.90
2019-02-12T04:00:38.543Z,6.33
2019-02-12T04:03:08.073Z,6.13
2019-02-12T04:05:37.809Z,5.90
2019-02-12T04:08:06.319Z,6.10
2019-02-12T04:10:34.627Z,6.27
2019-02-12T04:13:02.979Z,5.50
2019-02-12T04:15:31.279Z,6.30
2019-02-12T04:17:59.876Z,6.27
2019-02-12T04:20:28.167Z,6.40
2019-02-12T04:22:56.444Z,6.27
2019-02-12T04:25:24.828Z,7.93
2019-02-12T04:27:55.284Z,7.60
2019-02-12T04:30:23.130Z,7.97
2019-02-12T04:32:51.436Z,7.63
2019-02-12T04:35:19.723Z,8.07
2019-02-12T04:37:48.031Z,7.53
2019-02-12T04:40:16.703Z,6.53
2019-02-12T04:42:45.019Z,7.03
2019-02-12T04:45:13.358Z,7.47
2019-02-12T04:47:41.660Z,7.63
2019-02-12T04:50:12.561Z,7.53
2019-02-12T04:52:40.858Z,7.23
2019-02-12T04:55:10.984Z,8.37
2019-02-12T04:57:39.297Z,7.50
2019-02-12T05:00:10.879Z,7.20
2019-02-12T05:02:39.182Z,7.47
2019-02-12T05:05:09.811Z,7.57
2019-02-12T05:07:38.175Z,7.37
2019-02-12T05:10:09.766Z,7.47
2019-02-12T05:12:38.065Z,6.93
2019-02-12T05:15:08.484Z,7.43
2019-02-12T05:17:36.786Z,8.27
2019-02-12T05:20:08.251Z,8.80
2019-02-12T05:22:43.190Z,7.50
2019-02-12T05:25:07.631Z,7.40
2019-02-12T05:27:36.179Z,7.40
2019-02-12T05:30:09.979Z,7.57
2019-02-12T05:32:38.273Z,7.10
2019-02-12T05:35:07.326Z,7.87
2019-02-12T05:37:35.873Z,8.40
2019-02-12T05:40:06.868Z,7.50
2019-02-12T05:42:35.153Z,7.40
2019-02-12T05:45:04.399Z,7.33
2019-02-12T05:47:32.699Z,7.37
2019-02-12T05:50:01.020Z,7.23
2019-02-12T05:52:30.853Z,8.00
2019-02-12T05:54:59.128Z,7.40
2019-02-12T05:57:27.439Z,7.47
2019-02-12T05:59:55.982Z,7.83
2019-02-12T06:02:24.290Z,7.67
2019-02-12T06:04:52.820Z,8.23
2019-02-12T06:07:21.381Z,8.17
2019-02-12T06:09:49.918Z,8.10
2019-02-12T06:12:18.259Z,7.40
2019-02-12T06:14:46.534Z,7.33
2019-02-12T06:17:14.858Z,7.90
2019-02-12T06:19:44.082Z,7.53
2019-02-12T06:22:12.360Z,7.93
2019-02-12T06:24:40.666Z,9.13
2019-02-12T06:27:08.946Z,8.23
2019-02-12T06:29:37.247Z,9.07
2019-02-12T06:32:05.520Z,8.70
2019-02-12T06:34:34.093Z,7.73
2019-02-12T06:37:02.379Z,7.27
2019-02-12T06:39:30.678Z,8.07
2019-02-12T06:41:58.965Z,8.17
2019-02-12T06:44:27.538Z,8.10
2019-02-12T06:46:55.825Z,7.33
2019-02-12T06:49:24.209Z,7.97
2019-02-12T06:51:52.561Z,8.17
2019-02-12T06:54:20.839Z,7.73
2019-02-12T06:56:49.115Z,8.20
2019-02-12T06:59:17.671Z,8.90
2019-02-12T07:01:46.282Z,9.93
2019-02-12T07:04:14.679Z,9.67
2019-02-12T07:06:46.164Z,12.00
2019-02-12T07:09:20.620Z,10.20
2019-02-12T07:11:52.079Z,10.03
2019-02-12T07:14:26.086Z,9.67
2019-02-12T07:17:30.914Z,8.77
2019-02-12T07:20:19.056Z,10.63
2019-02-12T07:22:53.438Z,9.30
2019-02-12T07:25:55.229Z,13.37
2019-02-12T07:28:29.429Z,28.80
2019-02-12T07:31:24.096Z,27.77
2019-02-12T07:34:25.353Z,14.47
2019-02-12T07:37:08.557Z,11.30
2019-02-12T07:40:01.177Z,10.70
2019-02-12T07:42:44.910Z,10.87
2019-02-12T07:45:19.085Z,11.53
2019-02-12T07:48:08.620Z,9.57
2019-02-12T07:50:56.568Z,10.40
2019-02-12T07:53:33.984Z,10.67
2019-02-12T07:56:14.228Z,11.07
2019-02-12T07:58:48.539Z,11.30
2019-02-12T08:01:28.789Z,12.00
2019-02-12T08:04:19.770Z,13.27
2019-02-12T08:07:00.163Z,13.03
2019-02-12T08:09:40.636Z,13.77
2019-02-12T08:12:24.164Z,12.93
2019-02-12T08:15:01.574Z,12.73
2019-02-12T08:17:48.101Z,12.00
2019-02-12T08:20:34.588Z,13.03
2019-02-12T08:23:27.202Z,12.77
2019-02-12T08:26:25.024Z,12.80
2019-02-12T08:29:07.873Z,12.30
2019-02-12T08:31:57.614Z,13.03
2019-02-12T08:34:48.141Z,14.27
2019-02-12T08:37:38.010Z,14.70
2019-02-12T08:40:25.984Z,12.97
2019-02-12T08:43:09.326Z,14.07
2019-02-12T08:45:49.766Z,14.77
2019-02-12T08:48:23.834Z,17.50
2019-02-12T08:51:29.533Z,15.83
2019-02-12T08:54:23.469Z,19.17
2019-02-12T08:56:54.928Z,17.60
2019-02-12T08:59:35.097Z,16.87
2019-02-12T09:02:18.070Z,15.43
2019-02-12T09:04:49.536Z,14.83
2019-02-12T09:07:21.003Z,15.23
2019-02-12T09:10:19.728Z,16.50
2019-02-12T09:13:12.446Z,17.53
2019-02-12T09:16:05.993Z,17.73
2019-02-12T09:18:59.787Z,14.73
2019-02-12T09:22:04.389Z,14.10
2019-02-12T09:25:07.994Z,15.00
2019-02-12T09:27:54.395Z,13.10
2019-02-12T09:30:25.853Z,13.43
2019-02-12T09:33:11.940Z,12.93
2019-02-12T09:36:02.455Z,13.50
2019-02-12T09:38:48.760Z,12.87
2019-02-12T09:41:25.993Z,12.93
2019-02-12T09:44:09.528Z,13.47
2019-02-12T09:47:12.777Z,12.60
2019-02-12T09:50:17.519Z,13.73
2019-02-12T09:53:20.713Z,13.00
2019-02-12T09:56:07.523Z,13.70
2019-02-12T09:58:59.619Z,15.37
2019-02-12T10:01:33.987Z,15.43
2019-02-12T10:04:35.300Z,15.83
2019-02-12T10:07:07.014Z,15.87
2019-02-12T10:09:44.472Z,13.57
2019-02-12T10:12:18.428Z,13.83
2019-02-12T10:15:07.610Z,13.97
2019-02-12T10:18:06.723Z,13.93
2019-02-12T10:20:59.216Z,14.13
2019-02-12T10:23:53.153Z,13.60
2019-02-12T10:26:27.591Z,13.43
2019-02-12T10:29:23.052Z,14.03
2019-02-12T10:31:50.307Z,14.57
2019-02-12T10:34:18.612Z,13.83
2019-02-12T10:36:46.894Z,14.87
2019-02-12T10:39:15.430Z,14.47
2019-02-12T10:41:43.972Z,14.43
2019-02-12T10:44:12.987Z,14.50
2019-02-12T10:46:41.288Z,14.80
2019-02-12T10:49:09.576Z,15.33
2019-02-12T10:51:37.874Z,15.20
2019-02-12T10:54:06.403Z,14.03
2019-02-12T10:56:34.715Z,14.27
2019-02-12T10:59:03.063Z,14.63
2019-02-12T11:01:31.701Z,13.13
2019-02-12T11:03:59.978Z,13.13
2019-02-12T11:06:28.282Z,13.13
2019-02-12T11:08:56.565Z,13.13
2019-02-12T11:11:24.864Z,12.33
2019-02-12T11:13:53.411Z,12.20
2019-02-12T11:16:21.720Z,11.83
2019-02-12T11:18:50.014Z,12.47
2019-02-12T11:21:18.330Z,11.27
2019-02-12T11:23:46.878Z,11.33
2019-02-12T11:26:15.285Z,11.87
2019-02-12T11:28:43.586Z,11.93
2019-02-12T11:31:11.923Z,12.40
2019-02-12T11:33:40.210Z,12.77
2019-02-12T11:36:08.514Z,11.97
2019-02-12T11:38:36.807Z,11.97
2019-02-12T11:41:05.174Z,10.90
2019-02-12T11:43:33.476Z,11.47
2019-02-12T11:46:01.771Z,10.03
2019-02-12T11:48:30.100Z,10.73
2019-02-12T11:50:58.628Z,11.50
2019-02-12T11:53:28.097Z,9.97
2019-02-12T11:55:56.961Z,9.90
2019-02-12T11:58:25.297Z,10.07
2019-02-12T12:00:55.216Z,10.60
2019-02-12T12:03:23.545Z,10.23
2019-02-12T12:05:51.849Z,9.73
2019-02-12T12:08:20.195Z,9.70
2019-02-12T12:10:48.473Z,9.23
2019-02-12T12:13:16.757Z,8.73
2019-02-12T12:15:45.133Z,8.90
2019-02-12T12:18:13.486Z,8.27
2019-02-12T12:20:42.064Z,9.17
2019-02-12T12:23:10.347Z,8.57
2019-02-12T12:25:38.741Z,9.33
2019-02-12T12:28:07.080Z,9.30
2019-02-12T12:30:35.381Z,8.60
2019-02-12T12:33:05.208Z,8.23
2019-02-12T12:35:33.525Z,9.00
2019-02-12T12:38:01.807Z,9.77
2019-02-12T12:40:30.103Z,9.80
2019-02-12T12:42:58.387Z,8.77
2019-02-12T12:45:26.686Z,8.20
2019-02-12T12:47:54.979Z,8.17
2019-02-12T12:50:23.280Z,9.53
2019-02-12T12:52:52.707Z,8.70
2019-02-12T12:55:21.008Z,8.80
2019-02-12T12:57:49.302Z,8.60
2019-02-12T13:00:17.757Z,7.93
2019-02-12T13:02:46.141Z,7.63
2019-02-12T13:05:14.430Z,7.50
2019-02-12T13:07:42.986Z,6.97
2019-02-12T13:10:13.402Z,7.67
2019-02-12T13:12:41.727Z,8.13
2019-02-12T13:15:12.249Z,7.13
2019-02-12T13:17:40.545Z,6.67
2019-02-12T13:20:14.586Z,6.23
2019-02-12T13:22:42.918Z,5.50
2019-02-12T13:25:11.668Z,5.80
2019-02-12T13:27:40.644Z,5.97
2019-02-12T13:30:14.925Z,5.17
2019-02-12T13:32:43.233Z,5.00
2019-02-12T13:35:11.988Z,4.83
2019-02-12T13:37:40.695Z,5.20
2019-02-12T13:40:11.226Z,4.60
2019-02-12T13:42:39.638Z,4.70
2019-02-12T13:45:13.743Z,4.73
2019-02-12T13:47:41.960Z,4.57
2019-02-12T13:50:11.494Z,4.57
2019-02-12T13:52:40.060Z,4.93
2019-02-12T13:55:17.012Z,5.20
2019-02-12T13:57:39.599Z,3.80
2019-02-12T14:00:10.966Z,4.03
2019-02-12T14:02:39.601Z,4.17
2019-02-12T14:05:13.981Z,4.10
2019-02-12T14:07:42.267Z,4.13
2019-02-12T14:10:10.620Z,4.37
2019-02-12T14:12:38.915Z,4.00
2019-02-12T14:15:10.608Z,4.47
2019-02-12T14:17:38.898Z,4.13
2019-02-12T14:20:12.467Z,3.70
2019-02-12T14:22:40.746Z,4.10
2019-02-12T14:25:12.207Z,3.57
2019-02-12T14:27:40.502Z,3.90
2019-02-12T14:30:12.531Z,3.60
2019-02-12T14:32:40.829Z,4.10
2019-02-12T14:35:11.149Z,3.80
2019-02-12T14:37:39.445Z,3.53
2019-02-12T14:40:12.495Z,3.50
2019-02-12T14:42:41.035Z,3.83
2019-02-12T14:45:16.728Z,3.20
2019-02-12T14:47:45.021Z,3.27
2019-02-12T14:50:20.496Z,3.23
2019-02-12T14:52:48.792Z,3.27
2019-02-12T14:55:17.060Z,2.93
2019-02-12T14:57:45.376Z,3.63
2019-02-12T15:00:16.137Z,3.57
2019-02-12T15:02:44.405Z,3.30
2019-02-12T15:05:12.972Z,3.13
2019-02-12T15:07:41.256Z,3.23
2019-02-12T15:10:12.128Z,3.20
2019-02-12T15:12:40.719Z,2.93
2019-02-12T15:15:10.453Z,3.00
2019-02-12T15:17:39.100Z,3.10
2019-02-12T15:20:12.141Z,3.37
2019-02-12T15:22:40.428Z,3.50
2019-02-12T15:25:10.170Z,3.50
2019-02-12T15:27:38.716Z,3.37
2019-02-12T15:30:10.779Z,3.87
2019-02-12T15:32:39.064Z,3.60
2019-02-12T15:35:09.204Z,3.67
2019-02-12T15:37:37.484Z,3.50
2019-02-12T15:40:08.882Z,3.53
2019-02-12T15:42:37.209Z,3.50
2019-02-12T15:45:08.954Z,2.90
2019-02-12T15:47:37.399Z,3.80
2019-02-12T15:50:08.596Z,3.60
2019-02-12T15:52:36.889Z,3.93
2019-02-12T15:55:08.646Z,4.13
2019-02-12T15:57:36.924Z,3.70
2019-02-12T16:00:20.655Z,4.67
2019-02-12T16:02:49.168Z,3.57
2019-02-12T16:05:17.465Z,4.20
2019-02-12T16:07:47.380Z,4.50
2019-02-12T16:10:19.666Z,4.90
2019-02-12T16:12:48.960Z,5.00
2019-02-12T16:15:21.524Z,4.87
2019-02-12T16:17:49.056Z,5.17
2019-02-12T16:20:17.596Z,4.73
2019-02-12T16:22:46.135Z,5.67
2019-02-12T16:25:15.464Z,5.40
2019-02-12T16:27:43.853Z,4.97
2019-02-12T16:30:16.976Z,5.40
2019-02-12T16:32:45.347Z,5.53
2019-02-12T16:35:15.371Z,5.57
2019-02-12T16:37:43.844Z,4.97
2019-02-12T16:40:13.865Z,5.43
2019-02-12T16:42:42.172Z,5.80
2019-02-12T16:45:22.573Z,5.10
2019-02-12T16:47:50.877Z,5.63
2019-02-12T16:50:19.157Z,5.30
2019-02-12T16:52:47.516Z,5.03
2019-02-12T16:55:15.947Z,5.80
2019-02-12T16:57:44.227Z,6.03
2019-02-12T17:00:17.349Z,5.90
2019-02-12T17:02:46.703Z,6.10
2019-02-12T17:05:15.580Z,6.20
2019-02-12T17:07:45.102Z,6.00
2019-02-12T17:10:13.737Z,6.47
2019-02-12T17:12:42.343Z,5.73
2019-02-12T17:15:12.520Z,6.50
2019-02-12T17:17:40.835Z,6.40
2019-02-12T17:20:21.476Z,6.60
2019-02-12T17:22:49.752Z,7.00
2019-02-12T17:25:18.116Z,6.97
2019-02-12T17:27:48.022Z,6.00
2019-02-12T17:30:18.315Z,7.87
2019-02-12T17:32:46.595Z,7.20
2019-02-12T17:35:14.897Z,6.90
2019-02-12T17:37:43.427Z,6.67
2019-02-12T17:40:18.760Z,6.53
2019-02-12T17:42:47.108Z,7.70
2019-02-12T17:45:16.954Z,6.90
2019-02-12T17:47:45.224Z,6.77
2019-02-12T17:50:15.234Z,6.30
2019-02-12T17:52:43.603Z,6.70
2019-02-12T17:55:12.061Z,5.97
2019-02-12T17:57:40.351Z,5.30
2019-02-12T18:00:17.794Z,5.03
2019-02-12T18:02:46.092Z,5.13
2019-02-12T18:05:14.710Z,4.77
2019-02-12T18:07:43.003Z,5.10
2019-02-12T18:10:12.124Z,5.33
2019-02-12T18:12:40.696Z,5.67
2019-02-12T18:15:12.131Z,6.33
2019-02-12T18:17:40.493Z,6.17
2019-02-12T18:20:11.226Z,5.40
2019-02-12T18:22:39.811Z,6.37
2019-02-12T18:25:11.748Z,6.10
2019-02-12T18:27:40.982Z,5.50
2019-02-12T18:30:12.149Z,6.17
2019-02-12T18:32:40.449Z,5.70
2019-02-12T18:35:09.197Z,6.30
2019-02-12T18:37:37.503Z,30.67
2019-02-12T18:40:09.092Z,9.83
2019-02-12T18:42:37.383Z,7.30
2019-02-12T18:45:08.850Z,5.87
2019-02-12T18:47:37.154Z,5.70
2019-02-12T18:50:08.890Z,5.93
2019-02-12T18:52:37.175Z,7.03
2019-02-12T18:55:08.310Z,6.10
2019-02-12T18:57:36.856Z,6.60
2019-02-12T19:00:08.592Z,7.27
2019-02-12T19:02:36.877Z,7.07
2019-02-12T19:05:07.115Z,7.97
2019-02-12T19:07:35.414Z,6.80
2019-02-12T19:10:04.674Z,7.00
2019-02-12T19:12:32.968Z,7.10
2019-02-12T19:15:01.266Z,7.30
2019-02-12T19:17:29.553Z,7.10
2019-02-12T19:19:58.277Z,7.43
2019-02-12T19:22:26.568Z,7.20
2019-02-12T19:24:54.874Z,6.63
2019-02-12T19:27:23.238Z,6.90
2019-02-12T19:29:51.507Z,7.33
2019-02-12T19:32:20.070Z,7.33
2019-02-12T19:34:49.108Z,7.23
2019-02-12T19:37:17.408Z,6.83
2019-02-12T19:39:45.698Z,7.20
2019-02-12T19:42:13.997Z,6.33
2019-02-12T19:44:42.302Z,7.03
2019-02-12T19:47:10.853Z,6.83
2019-02-12T19:49:39.141Z,7.83
2019-02-12T19:52:07.464Z,7.30
2019-02-12T19:54:35.766Z,7.37
2019-02-12T19:57:04.368Z,7.00
2019-02-12T19:59:32.658Z,7.40
2019-02-12T20:02:01.229Z,6.83
2019-02-12T20:04:29.511Z,8.10
2019-02-12T20:06:57.814Z,7.53
2019-02-12T20:09:27.034Z,7.70
2019-02-12T20:11:55.341Z,7.80
2019-02-12T20:14:23.631Z,9.17
2019-02-12T20:16:51.931Z,9.73
2019-02-12T20:19:20.220Z,9.53
2019-02-12T20:21:48.607Z,10.67
2019-02-12T20:24:16.901Z,10.83
2019-02-12T20:26:45.207Z,10.10
2019-02-12T20:29:13.496Z,10.20
2019-02-12T20:31:41.799Z,10.17
2019-02-12T20:34:10.085Z,9.03
2019-02-12T20:36:38.390Z,9.97
2019-02-12T20:39:06.844Z,9.00
2019-02-12T20:41:35.115Z,9.53
2019-02-12T20:44:03.668Z,9.37
2019-02-12T20:46:31.953Z,8.70
2019-02-12T20:49:00.244Z,9.90
2019-02-12T20:51:28.786Z,8.80
2019-02-12T20:53:57.080Z,8.93
2019-02-12T20:56:25.366Z,8.73
2019-02-12T20:58:53.658Z,8.43
2019-02-12T21:01:21.955Z,12.30
2019-02-12T21:03:50.495Z,13.67
2019-02-12T21:06:19.038Z,9.80
2019-02-12T21:08:47.338Z,10.20
2019-02-12T21:11:15.878Z,9.60
2019-02-12T21:13:44.204Z,9.67
2019-02-12T21:16:12.490Z,10.90
2019-02-12T21:18:40.772Z,10.60
2019-02-12T21:21:09.079Z,11.10
2019-02-12T21:23:37.363Z,11.00
2019-02-12T21:26:05.908Z,12.00
2019-02-12T21:28:34.211Z,10.50
2019-02-12T21:31:02.586Z,10.37
2019-02-12T21:33:30.927Z,10.20
2019-02-12T21:35:59.724Z,9.43
2019-02-12T21:38:28.105Z,11.00
2019-02-12T21:40:56.395Z,10.20
2019-02-12T21:43:24.692Z,11.30
2019-02-12T21:45:53.221Z,11.40
2019-02-12T21:48:21.559Z,12.77
2019-02-12T21:50:49.855Z,10.87
2019-02-12T21:53:18.400Z,10.47
2019-02-12T21:55:46.937Z,9.60
2019-02-12T21:58:15.236Z,9.40
2019-02-12T22:00:43.514Z,9.63
2019-02-12T22:03:12.078Z,9.20
2019-02-12T22:05:40.603Z,9.07
2019-02-12T22:08:08.915Z,11.27
2019-02-12T22:10:37.207Z,12.00
2019-02-12T22:13:05.778Z,12.27
2019-02-12T22:15:34.309Z,13.37
2019-02-12T22:18:02.590Z,17.07
2019-02-12T22:20:31.149Z,14.80
2019-02-12T22:22:59.487Z,14.00
2019-02-12T22:25:28.027Z,12.70
2019-02-12T22:27:57.191Z,10.43
2019-02-12T22:30:26.353Z,9.47
2019-02-12T22:32:54.648Z,8.87
2019-02-12T22:35:22.950Z,9.00
2019-02-12T22:37:51.240Z,9.37
2019-02-12T22:40:19.529Z,8.47
2019-02-12T22:42:48.073Z,8.40
2019-02-12T22:45:21.423Z,8.50
2019-02-12T22:47:49.706Z,7.90
2019-02-12T22:50:18.002Z,7.90
2019-02-12T22:52:46.306Z,8.23
2019-02-12T22:55:14.578Z,7.50
2019-02-12T22:57:48.909Z,7.43
2019-02-12T23:00:34.009Z,7.97
2019-02-12T23:03:02.296Z,7.90
2019-02-12T23:05:30.831Z,7.63
2019-02-12T23:07:59.129Z,7.20
2019-02-12T23:10:27.411Z,8.60
2019-02-12T23:12:55.715Z,8.97
2019-02-12T23:15:24.000Z,8.33
2019-02-12T23:17:52.303Z,8.13
2019-02-12T23:20:20.576Z,7.50
2019-02-12T23:22:48.891Z,7.83
2019-02-12T23:25:17.174Z,7.97
2019-02-12T23:27:45.750Z,8.20
2019-02-12T23:30:14.104Z,7.80
2019-02-12T23:32:42.380Z,7.20
2019-02-12T23:35:10.675Z,6.83
2019-02-12T23:37:39.226Z,7.30
2019-02-12T23:40:08.596Z,7.03
2019-02-12T23:42:36.875Z,6.33
2019-02-12T23:45:07.253Z,7.03
2019-02-12T23:47:35.543Z,6.97
2019-02-12T23:50:05.650Z,6.20
2019-02-12T23:52:33.937Z,6.87
2019-02-12T23:55:02.494Z,6.37
2019-02-12T23:57:30.769Z,6.57
2019-02-12T23:59:59.073Z,7.03
